OIBL  Bandar Lengeh  Airport

Bandar Lengeh, Iran

Add Bookmark
ICAO OIBL
IATA BDH
Type Airport
Status Operational
Latitude
26° 31' 55" N
26.532000
Longitude
54° 49' 29" E
54.824799
Local (DST + 5) UTC (GMT + 4)
Sep 2, 2015 02:47 Sep 1, 2015 22:17
Sunrise-Sunset Local UTC
Begin Civil Twilight 06:06 01:36
Sunrise 06:29 01:59
Sunset 07:11 14:41
End Civil Twilight 07:34 15:04
VFR
VFR
MVFR
MVFR
IFR
IFR
LIFR
LIFR
Unknown
Unavailable

Current Weather

METAR Observed VFR
OIBL 012100Z 00000KT CAVOK 33/28 Q1000 Tue, Sep 1, 2015 @ 21:00 UTC
(1 Hour, 17 Minutes ago)
Visual Flight Rules
Wind Visibility Conditions
Calm 10 km or more
  • No significant weather
Temperatures Readings Precipitation
Current Temp
33°C
91°F
Dewpoint
28°C
82°F
Heat Index
45°C
113°
Humidity 75%
Altimeter 29.53" Hg
Sea Level Pressure 1,000 mb
Field Elevation
14 m
46 ft
None Recorded

Additional weather within a 92.6km radius of OIBL

Map ICAO Location
OIBS 74.8km S/SW (202°)
OIBA 75.9km S/SE (164°)
VFR
VFR
MVFR
MVFR
IFR
IFR
LIFR
LIFR
Unknown
Unavailable
-
-

CheckWX.com is intended as a tool to help pilots better visualize weather data. It is not intended as a substitute for an official weather briefing obtained from a Flight Service Station. CheckWX.com does not meet the FAA requirements for an official pre-flight weather briefing. Therefore, it's important that pilots still call and obtain an official FSS pre-flight weather briefing.

© 2007-2015 CheckWX.com
22:17:46 UTC